Terminal Aerodrome Forecast
Issued by NWS

Home | Current Version | Previous Version | Text Only | Print | Product List | Glossary On
Versions: 1 2 3 4 5 6 7 8 9 10 11 12 13 14 15 16 17 18 19 20 21 22 23 24 25 26 27 28 29 30 31 32
000
FTUS45 KGJT 230236 AAA
TAFRIL
TAF AMD
KRIL 230236Z 2303/2324 31006KT P6SM VCSH BKN070
     FM230400 34007KT P6SM VCSH BKN070
     FM230700 34004KT P6SM SCT090
     FM231600 28004KT P6SM FEW200=

USA.gov is the U.S. government's official web portal to all federal, state and local government web resources and services.